createdAt,value
2022-09-28T00:00:21.675Z,98979.04
2022-09-28T00:03:13.870Z,98979.81
2022-09-28T00:05:46.339Z,98975.27
2022-09-28T00:08:17.978Z,98974.52
2022-09-28T00:10:58.154Z,98970.80
2022-09-28T00:13:31.824Z,98971.12
2022-09-28T00:16:05.983Z,98972.66
2022-09-28T00:18:37.657Z,98970.34
2022-09-28T00:21:15.375Z,98966.55
2022-09-28T00:24:04.918Z,98961.81
2022-09-28T00:26:37.051Z,98960.04
2022-09-28T00:29:16.469Z,98960.04
2022-09-28T00:31:51.221Z,98958.44
2022-09-28T00:34:23.079Z,98955.52
2022-09-28T00:36:55.564Z,98954.84
2022-09-28T00:39:27.498Z,98949.60
2022-09-28T00:42:01.439Z,98945.80
2022-09-28T00:44:40.851Z,98946.48
2022-09-28T00:47:25.743Z,98950.27
2022-09-28T00:50:01.944Z,98947.66
2022-09-28T00:52:39.682Z,98943.72
2022-09-28T00:55:15.235Z,98941.85
2022-09-28T00:57:50.905Z,98940.23
2022-09-28T01:00:22.952Z,98944.98
2022-09-28T01:02:56.804Z,98940.55
2022-09-28T01:05:29.904Z,98943.02
2022-09-28T01:08:04.285Z,98939.73
2022-09-28T01:10:36.040Z,98943.15
2022-09-28T01:13:08.686Z,98940.56
2022-09-28T01:15:51.166Z,98939.99
2022-09-28T01:18:34.235Z,98937.96
2022-09-28T01:21:12.273Z,98937.77
2022-09-28T01:24:05.859Z,98934.84
2022-09-28T01:27:00.144Z,98933.86
2022-09-28T01:29:42.686Z,98933.77
2022-09-28T01:32:25.021Z,98928.14
2022-09-28T01:35:03.297Z,98927.55
2022-09-28T01:37:40.434Z,98920.58
2022-09-28T01:40:23.312Z,98921.82
2022-09-28T01:42:59.662Z,98924.58
2022-09-28T01:45:38.093Z,98923.85
2022-09-28T01:48:12.172Z,98922.83
2022-09-28T01:50:50.572Z,98924.79
2022-09-28T01:53:27.419Z,98923.61
2022-09-28T01:56:04.582Z,98918.87
2022-09-28T01:58:41.282Z,98916.05
2022-09-28T02:01:19.285Z,98912.61
2022-09-28T02:03:58.104Z,98911.02
2022-09-28T02:06:35.125Z,98912.69
2022-09-28T02:09:12.632Z,98912.25
2022-09-28T02:11:52.148Z,98914.75
2022-09-28T02:14:26.041Z,98920.07
2022-09-28T02:16:59.139Z,98914.60
2022-09-28T02:19:38.991Z,98920.35
2022-09-28T02:22:25.876Z,98919.91
2022-09-28T02:25:00.280Z,98919.48
2022-09-28T02:27:40.819Z,98928.58
2022-09-28T02:30:15.004Z,98931.86
2022-09-28T02:32:53.083Z,98928.70
2022-09-28T02:35:25.032Z,98931.33
2022-09-28T02:37:56.999Z,98930.25
2022-09-28T02:40:32.900Z,98931.38
2022-09-28T02:43:16.542Z,98934.71
2022-09-28T02:46:12.756Z,98936.61
2022-09-28T02:49:20.486Z,98938.70
2022-09-28T02:52:03.916Z,98934.64
2022-09-28T02:54:49.461Z,98936.27
2022-09-28T02:57:32.573Z,98930.55
2022-09-28T03:00:15.930Z,98931.07
2022-09-28T03:02:57.874Z,98932.30
2022-09-28T03:05:40.897Z,98940.88
2022-09-28T03:08:19.794Z,98941.80
2022-09-28T03:10:59.675Z,98938.10
2022-09-28T03:13:32.057Z,98943.20
2022-09-28T03:16:15.246Z,98942.95
2022-09-28T03:18:47.355Z,98938.54
2022-09-28T03:21:21.479Z,98935.55
2022-09-28T03:23:53.005Z,98935.40
2022-09-28T03:26:25.430Z,98934.19
2022-09-28T03:28:56.951Z,98936.73
2022-09-28T03:31:29.369Z,98934.63
2022-09-28T03:34:01.230Z,98933.32
2022-09-28T03:36:32.844Z,98934.63
2022-09-28T03:39:04.557Z,98934.60
2022-09-28T03:41:38.549Z,98932.20
2022-09-28T03:44:10.064Z,98930.96
2022-09-28T03:46:41.825Z,98926.10
2022-09-28T03:49:13.490Z,98927.03
2022-09-28T03:51:46.789Z,98925.53
2022-09-28T03:54:18.987Z,98925.52
2022-09-28T03:56:51.364Z,98919.86
2022-09-28T03:59:22.918Z,98919.22
2022-09-28T04:01:54.885Z,98918.62
2022-09-28T04:04:26.511Z,98913.30
2022-09-28T04:06:58.052Z,98918.11
2022-09-28T04:09:29.617Z,98920.58
2022-09-28T04:12:04.609Z,98917.41
2022-09-28T04:14:36.370Z,98914.41
2022-09-28T04:17:07.926Z,98911.09
2022-09-28T04:19:39.479Z,98912.39
2022-09-28T04:22:11.816Z,98903.49
2022-09-28T04:24:43.696Z,98895.46
2022-09-28T04:27:32.953Z,98893.71
2022-09-28T04:30:05.215Z,98895.15
2022-09-28T04:32:41.678Z,98894.13
2022-09-28T04:35:14.526Z,98891.96
2022-09-28T04:37:46.114Z,98886.23
2022-09-28T04:40:17.863Z,98885.30
2022-09-28T04:42:57.101Z,98884.16
2022-09-28T04:45:28.851Z,98877.38
2022-09-28T04:48:00.669Z,98875.09
2022-09-28T04:50:32.193Z,98875.53
2022-09-28T04:53:05.559Z,98874.93
2022-09-28T04:55:37.099Z,98875.34
2022-09-28T04:58:09.520Z,98875.12
2022-09-28T05:00:41.055Z,98879.63
2022-09-28T05:03:14.361Z,98879.67
2022-09-28T05:05:49.029Z,98881.07
2022-09-28T05:08:20.879Z,98876.91
2022-09-28T05:11:00.553Z,98877.95
2022-09-28T05:13:35.274Z,98883.91
2022-09-28T05:16:06.993Z,98887.98
2022-09-28T05:18:38.748Z,98886.48
2022-09-28T05:21:13.825Z,98889.98
2022-09-28T05:23:49.429Z,98886.73
2022-09-28T05:26:21.909Z,98886.80
2022-09-28T05:28:53.590Z,98884.05
2022-09-28T05:31:27.246Z,98884.39
2022-09-28T05:34:00.677Z,98881.72
2022-09-28T05:36:36.407Z,98879.69
2022-09-28T05:39:12.086Z,98882.70
2022-09-28T05:41:43.726Z,98886.77
2022-09-28T05:44:15.513Z,98885.66
2022-09-28T05:46:47.375Z,98886.19
2022-09-28T05:49:18.936Z,98882.13
2022-09-28T05:51:50.623Z,98881.02
2022-09-28T05:54:22.474Z,98879.05
2022-09-28T05:56:54.089Z,98882.59
2022-09-28T05:59:25.762Z,98887.74
2022-09-28T06:01:57.350Z,98885.25
2022-09-28T06:04:29.600Z,98886.68
2022-09-28T06:07:01.590Z,98886.45
2022-09-28T06:09:33.354Z,98882.17
2022-09-28T06:12:05.522Z,98880.59
2022-09-28T06:14:40.693Z,98880.61
2022-09-28T06:17:13.377Z,98882.17
2022-09-28T06:19:45.479Z,98887.41
2022-09-28T06:22:17.082Z,98885.67
2022-09-28T06:24:48.744Z,98884.48
2022-09-28T06:27:20.301Z,98886.98
2022-09-28T06:29:52.989Z,98886.52
2022-09-28T06:32:24.555Z,98890.55
2022-09-28T06:34:56.630Z,98889.14
2022-09-28T06:37:28.990Z,98885.12
2022-09-28T06:40:01.551Z,98881.85
2022-09-28T06:42:33.327Z,98885.92
2022-09-28T06:45:06.128Z,98887.16
2022-09-28T06:47:38.264Z,98890.04
2022-09-28T06:50:17.542Z,98886.88
2022-09-28T06:52:57.313Z,98880.48
2022-09-28T06:55:29.525Z,98884.66
2022-09-28T06:58:02.265Z,98884.36
2022-09-28T07:00:38.674Z,98888.57
2022-09-28T07:03:13.593Z,98890.08
2022-09-28T07:05:47.344Z,98890.40
2022-09-28T07:08:19.738Z,98891.27
2022-09-28T07:10:58.680Z,98890.92
2022-09-28T07:13:50.991Z,98893.68
2022-09-28T07:16:26.881Z,98895.02
2022-09-28T07:18:59.875Z,98896.29
2022-09-28T07:21:32.798Z,98898.48
2022-09-28T07:24:05.698Z,98900.82
2022-09-28T07:26:37.339Z,98901.68
2022-09-28T07:29:09.113Z,98898.96
2022-09-28T07:31:41.872Z,98904.03
2022-09-28T07:34:13.891Z,98901.80
2022-09-28T07:36:45.553Z,98897.83
2022-09-28T07:39:17.309Z,98893.79
2022-09-28T07:41:49.017Z,98890.42
2022-09-28T07:44:20.631Z,98893.06
2022-09-28T07:46:53.085Z,98886.62
2022-09-28T07:49:24.626Z,98890.44
2022-09-28T07:51:56.560Z,98886.08
2022-09-28T07:54:28.065Z,98885.73
2022-09-28T07:57:01.802Z,98883.65
2022-09-28T07:59:33.657Z,98879.42
2022-09-28T08:02:06.028Z,98872.80
2022-09-28T08:04:37.659Z,98868.89
2022-09-28T08:07:12.678Z,98870.68
2022-09-28T08:09:44.334Z,98869.52
2022-09-28T08:12:18.466Z,98870.06
2022-09-28T08:14:52.308Z,98865.80
2022-09-28T08:17:24.061Z,98859.03
2022-09-28T08:20:13.507Z,98858.23
2022-09-28T08:22:46.423Z,98856.07
2022-09-28T08:25:18.063Z,98853.09
2022-09-28T08:27:49.681Z,98852.70
2022-09-28T08:30:21.355Z,98857.61
2022-09-28T08:32:53.888Z,98854.65
2022-09-28T08:35:26.375Z,98853.55
2022-09-28T08:37:57.998Z,98850.95
2022-09-28T08:40:31.231Z,98847.98
2022-09-28T08:43:08.248Z,98845.96
2022-09-28T08:45:39.891Z,98843.48
2022-09-28T08:48:37.789Z,98843.38
2022-09-28T08:51:16.131Z,98839.08
2022-09-28T08:53:54.316Z,98842.02
2022-09-28T08:56:31.903Z,98842.00
2022-09-28T08:59:06.638Z,98836.60
2022-09-28T09:01:44.026Z,98839.93
2022-09-28T09:04:16.216Z,98836.63
2022-09-28T09:07:17.867Z,98832.77
2022-09-28T09:10:00.453Z,98843.55
2022-09-28T09:12:42.479Z,98844.05
2022-09-28T09:15:34.953Z,98839.63
2022-09-28T09:18:20.093Z,98831.96
2022-09-28T09:20:57.641Z,98832.37
2022-09-28T09:23:39.272Z,98835.55
2022-09-28T09:26:23.976Z,98833.09
2022-09-28T09:29:24.024Z,98832.09
2022-09-28T09:32:10.578Z,98832.01
2022-09-28T09:34:53.850Z,98836.31
2022-09-28T09:37:47.432Z,98838.65
2022-09-28T09:40:30.484Z,98845.58
2022-09-28T09:43:19.784Z,98844.00
2022-09-28T09:46:03.781Z,98846.71
2022-09-28T09:48:41.340Z,98840.73
2022-09-28T09:51:20.904Z,98835.84
2022-09-28T09:54:00.234Z,98837.08
2022-09-28T09:56:38.578Z,98836.64
2022-09-28T09:59:15.238Z,98838.02
2022-09-28T10:01:47.809Z,98838.64
2022-09-28T10:04:25.129Z,98841.44
2022-09-28T10:07:07.640Z,98834.23
2022-09-28T10:09:42.463Z,98827.75
2022-09-28T10:12:23.822Z,98833.46
2022-09-28T10:14:56.175Z,98833.58
2022-09-28T10:17:28.032Z,98835.58
2022-09-28T10:19:59.635Z,98830.71
2022-09-28T10:22:32.406Z,98831.83
2022-09-28T10:25:06.694Z,98835.20
2022-09-28T10:27:45.446Z,98834.38
2022-09-28T10:30:23.777Z,98833.89
2022-09-28T10:32:59.569Z,98837.24
2022-09-28T10:35:41.417Z,98837.63
2022-09-28T10:38:19.626Z,98836.31
2022-09-28T10:40:55.255Z,98828.34
2022-09-28T10:43:30.581Z,98831.47
2022-09-28T10:46:08.838Z,98828.05
2022-09-28T10:48:57.881Z,98827.67
2022-09-28T10:51:44.607Z,98823.73
2022-09-28T10:54:21.383Z,98819.98
2022-09-28T10:56:54.576Z,98817.52
2022-09-28T10:59:40.887Z,98818.77
2022-09-28T11:02:26.117Z,98819.43
2022-09-28T11:05:01.174Z,98818.55
2022-09-28T11:07:45.354Z,98816.92
2022-09-28T11:10:25.194Z,98817.66
2022-09-28T11:12:59.183Z,98817.95
2022-09-28T11:15:33.646Z,98818.61
2022-09-28T11:18:27.060Z,98814.88
2022-09-28T11:21:12.998Z,98815.55
2022-09-28T11:23:58.890Z,98813.50
2022-09-28T11:26:35.609Z,98811.88
2022-09-28T11:29:08.726Z,98812.61
2022-09-28T11:31:40.498Z,98813.25
2022-09-28T11:34:31.024Z,98808.55
2022-09-28T11:37:36.769Z,98807.35
2022-09-28T11:40:30.142Z,98802.84
2022-09-28T11:43:16.716Z,98806.60
2022-09-28T11:45:56.307Z,98807.92
2022-09-28T11:48:33.503Z,98804.40
2022-09-28T11:51:14.213Z,98803.14
2022-09-28T11:53:51.228Z,98805.67
2022-09-28T11:56:36.352Z,98802.72
2022-09-28T11:59:13.603Z,98801.80
2022-09-28T12:01:52.457Z,98799.91
2022-09-28T12:04:27.856Z,98798.90
2022-09-28T12:07:05.134Z,98799.05
2022-09-28T12:09:41.410Z,98793.01
2022-09-28T12:12:22.518Z,98794.56
2022-09-28T12:14:53.983Z,98798.23
2022-09-28T12:17:32.274Z,98797.94
2022-09-28T12:20:13.750Z,98791.91
2022-09-28T12:22:52.381Z,98792.36
2022-09-28T12:25:26.405Z,98788.54
2022-09-28T12:28:02.400Z,98788.38
2022-09-28T12:30:40.616Z,98785.88
2022-09-28T12:33:15.513Z,98785.58
2022-09-28T12:36:06.924Z,98787.64
2022-09-28T12:39:14.792Z,98786.83
2022-09-28T12:41:54.100Z,98786.56
2022-09-28T12:44:42.683Z,98786.34
2022-09-28T12:47:36.666Z,98783.39
2022-09-28T12:50:39.618Z,98785.60
2022-09-28T12:53:31.197Z,98786.69
2022-09-28T12:56:06.524Z,98781.79
2022-09-28T12:59:01.554Z,98785.66
2022-09-28T13:02:02.447Z,98787.17
2022-09-28T13:05:00.305Z,98786.05
2022-09-28T13:07:39.851Z,98784.11
2022-09-28T13:10:32.770Z,98787.41
2022-09-28T13:13:24.473Z,98789.97
2022-09-28T13:16:03.746Z,98788.46
2022-09-28T13:18:42.897Z,98795.27
2022-09-28T13:21:28.351Z,98798.80
2022-09-28T13:24:27.910Z,98796.05
2022-09-28T13:27:04.470Z,98795.55
2022-09-28T13:29:36.929Z,98798.06
2022-09-28T13:32:12.695Z,98800.27
2022-09-28T13:34:48.445Z,98801.05
2022-09-28T13:37:26.636Z,98799.64
2022-09-28T13:39:59.270Z,98800.02
2022-09-28T13:42:54.258Z,98798.63
2022-09-28T13:45:48.860Z,98803.21
2022-09-28T13:48:23.629Z,98802.20
2022-09-28T13:51:11.633Z,98800.89
2022-09-28T13:54:19.071Z,98807.64
2022-09-28T13:56:59.570Z,98822.26
2022-09-28T13:59:33.901Z,98822.09
2022-09-28T14:02:21.080Z,98824.72
2022-09-28T14:04:58.895Z,98830.23
2022-09-28T14:07:59.315Z,98842.48
2022-09-28T14:10:52.083Z,98852.42
2022-09-28T14:13:57.540Z,98855.04
2022-09-28T14:16:31.953Z,98854.16
2022-09-28T14:19:08.261Z,98850.90
2022-09-28T14:21:58.231Z,98845.31
2022-09-28T14:24:51.823Z,98841.42
2022-09-28T14:27:46.226Z,98842.35
2022-09-28T14:30:29.264Z,98841.09
2022-09-28T14:33:13.390Z,98841.42
2022-09-28T14:35:49.868Z,98842.56
2022-09-28T14:38:41.910Z,98840.92
2022-09-28T14:41:29.522Z,98837.48
2022-09-28T14:44:05.326Z,98835.52
2022-09-28T14:46:40.538Z,98832.80
2022-09-28T14:49:42.926Z,98833.94
2022-09-28T14:52:19.254Z,98829.61
2022-09-28T14:54:58.380Z,98830.66
2022-09-28T14:57:32.462Z,98830.89
2022-09-28T15:00:21.421Z,98837.70
2022-09-28T15:02:55.628Z,98837.99
2022-09-28T15:05:31.935Z,98841.01
2022-09-28T15:08:05.559Z,98842.84
2022-09-28T15:10:42.088Z,98842.77
2022-09-28T15:13:23.288Z,98837.36
2022-09-28T15:16:00.921Z,98832.77
2022-09-28T15:19:08.545Z,98833.00
2022-09-28T15:21:42.126Z,98827.63
2022-09-28T15:24:31.863Z,98823.88
2022-09-28T15:27:05.831Z,98820.61
2022-09-28T15:29:37.826Z,98821.36
2022-09-28T15:32:25.884Z,98822.55
2022-09-28T15:34:58.659Z,98822.77
2022-09-28T15:37:40.296Z,98822.76
2022-09-28T15:40:20.698Z,98828.78
2022-09-28T15:42:59.305Z,98830.70
2022-09-28T15:45:37.810Z,98830.37
2022-09-28T15:48:31.117Z,98829.89
2022-09-28T15:51:11.049Z,98830.30
2022-09-28T15:53:56.110Z,98834.65
2022-09-28T15:56:28.488Z,98837.23
2022-09-28T15:59:20.113Z,98835.16
2022-09-28T16:02:08.099Z,98838.98
2022-09-28T16:04:44.354Z,98838.57
2022-09-28T16:07:25.246Z,98843.51
2022-09-28T16:10:06.268Z,98843.21
2022-09-28T16:12:46.605Z,98844.70
2022-09-28T16:15:24.308Z,98846.96
2022-09-28T16:18:00.742Z,98848.51
2022-09-28T16:20:35.654Z,98846.73
2022-09-28T16:23:21.414Z,98847.52
2022-09-28T16:25:56.126Z,98851.00
2022-09-28T16:28:51.865Z,98853.42
2022-09-28T16:31:33.304Z,98856.28
2022-09-28T16:34:20.777Z,98855.69
2022-09-28T16:36:53.058Z,98855.16
2022-09-28T16:39:25.536Z,98853.56
2022-09-28T16:42:02.946Z,98857.97
2022-09-28T16:44:36.013Z,98854.05
2022-09-28T16:47:08.937Z,98854.20
2022-09-28T16:49:41.928Z,98857.45
2022-09-28T16:52:34.703Z,98860.51
2022-09-28T16:55:39.335Z,98858.98
2022-09-28T16:58:13.133Z,98862.95
2022-09-28T17:00:47.468Z,98864.98
2022-09-28T17:03:20.132Z,98862.21
2022-09-28T17:05:52.462Z,98863.70
2022-09-28T17:08:25.807Z,98866.17
2022-09-28T17:11:19.200Z,98863.06
2022-09-28T17:13:51.978Z,98862.96
2022-09-28T17:16:57.312Z,98863.22
2022-09-28T17:19:21.980Z,98866.98
2022-09-28T17:21:55.300Z,98868.08
2022-09-28T17:24:26.962Z,98869.14
2022-09-28T17:27:00.854Z,98867.80
2022-09-28T17:29:32.814Z,98870.27
2022-09-28T17:32:09.328Z,98876.73
2022-09-28T17:34:40.968Z,98876.61
2022-09-28T17:37:15.749Z,98877.63
2022-09-28T17:39:47.337Z,98885.21
2022-09-28T17:42:19.033Z,98885.23
2022-09-28T17:44:50.677Z,98886.80
2022-09-28T17:47:22.524Z,98886.41
2022-09-28T17:49:54.438Z,98887.64
2022-09-28T17:52:26.931Z,98891.17
2022-09-28T17:54:58.501Z,98892.42
2022-09-28T17:57:30.178Z,98894.52
2022-09-28T18:00:02.020Z,98899.82
2022-09-28T18:02:33.919Z,98902.48
2022-09-28T18:05:06.038Z,98903.84
2022-09-28T18:07:38.010Z,98907.18
2022-09-28T18:10:14.381Z,98908.56
2022-09-28T18:12:47.742Z,98907.45
2022-09-28T18:15:20.446Z,98910.17
2022-09-28T18:17:52.534Z,98912.27
2022-09-28T18:20:24.345Z,98915.95
2022-09-28T18:22:56.991Z,98919.30
2022-09-28T18:25:29.986Z,98926.27
2022-09-28T18:28:02.165Z,98927.17
2022-09-28T18:30:34.411Z,98930.12
2022-09-28T18:33:06.658Z,98928.65
2022-09-28T18:35:40.742Z,98933.80
2022-09-28T18:38:12.853Z,98934.83
2022-09-28T18:40:44.792Z,98934.84
2022-09-28T18:43:18.661Z,98937.08
2022-09-28T18:45:50.460Z,98940.85
2022-09-28T18:48:22.388Z,98944.25
2022-09-28T18:50:54.320Z,98947.52
2022-09-28T18:53:26.361Z,98950.68
2022-09-28T18:55:58.226Z,98955.30
2022-09-28T18:58:30.929Z,98958.65
2022-09-28T19:01:28.412Z,98962.55
2022-09-28T19:03:59.273Z,98961.14
2022-09-28T19:06:32.258Z,98963.81
2022-09-28T19:09:04.926Z,98968.02
2022-09-28T19:11:36.784Z,98965.17
2022-09-28T19:14:11.220Z,98965.38
2022-09-28T19:16:45.113Z,98969.95
2022-09-28T19:19:19.252Z,98973.18
2022-09-28T19:21:51.307Z,98972.92
2022-09-28T19:24:23.247Z,98970.67
2022-09-28T19:26:55.022Z,98971.95
2022-09-28T19:29:27.171Z,98972.61
2022-09-28T19:31:59.009Z,98979.06
2022-09-28T19:34:30.883Z,98981.02
2022-09-28T19:37:03.974Z,98982.04
2022-09-28T19:39:36.402Z,98981.90
2022-09-28T19:42:08.420Z,98982.09
2022-09-28T19:44:40.514Z,98983.64
2022-09-28T19:47:13.139Z,98986.96
2022-09-28T19:49:45.303Z,98989.34
2022-09-28T19:52:17.661Z,98988.98
2022-09-28T19:54:54.516Z,98990.94
2022-09-28T19:57:27.806Z,98990.49
2022-09-28T20:00:03.165Z,98993.48
2022-09-28T20:03:03.644Z,98995.73
2022-09-28T20:05:38.222Z,98994.42
2022-09-28T20:08:10.221Z,99000.15
2022-09-28T20:10:50.111Z,98998.77
2022-09-28T20:13:22.625Z,99001.03
2022-09-28T20:15:54.763Z,99003.28
2022-09-28T20:18:27.594Z,99006.13
2022-09-28T20:21:07.887Z,99009.59
2022-09-28T20:23:40.564Z,99012.04
2022-09-28T20:26:13.856Z,99016.81
2022-09-28T20:28:45.821Z,99019.63
2022-09-28T20:31:21.217Z,99026.27
2022-09-28T20:33:53.488Z,99026.90
2022-09-28T20:36:26.409Z,99032.30
2022-09-28T20:38:58.710Z,99032.37
2022-09-28T20:41:35.673Z,99033.17
2022-09-28T20:44:08.528Z,99030.77
2022-09-28T20:46:40.618Z,99034.48
2022-09-28T20:49:12.357Z,99033.24
2022-09-28T20:51:44.659Z,99036.63
2022-09-28T20:54:16.469Z,99039.40
2022-09-28T20:56:48.370Z,99040.71
2022-09-28T20:59:22.747Z,99045.38
2022-09-28T21:01:54.882Z,99048.92
2022-09-28T21:04:27.122Z,99052.02
2022-09-28T21:06:58.930Z,99054.14
2022-09-28T21:09:32.214Z,99055.20
2022-09-28T21:12:05.901Z,99058.00
2022-09-28T21:14:37.764Z,99060.58
2022-09-28T21:17:09.520Z,99059.73
2022-09-28T21:19:41.232Z,99062.15
2022-09-28T21:22:13.911Z,99065.11
2022-09-28T21:24:45.622Z,99070.37
2022-09-28T21:27:17.444Z,99069.27
2022-09-28T21:29:49.495Z,99074.34
2022-09-28T21:32:22.994Z,99076.25
2022-09-28T21:34:55.851Z,99076.59
2022-09-28T21:37:27.678Z,99080.23
2022-09-28T21:39:59.606Z,99087.30
2022-09-28T21:42:31.356Z,99085.30
2022-09-28T21:45:03.129Z,99086.93
2022-09-28T21:47:35.395Z,99091.84
2022-09-28T21:50:10.728Z,99092.63
2022-09-28T21:52:44.120Z,99097.69
2022-09-28T21:55:16.137Z,99096.61
2022-09-28T21:57:50.738Z,99099.63
2022-09-28T22:00:24.379Z,99101.17
2022-09-28T22:03:01.339Z,99102.33
2022-09-28T22:05:33.934Z,99106.04
2022-09-28T22:08:05.949Z,99109.93
2022-09-28T22:10:37.866Z,99113.11
2022-09-28T22:13:11.248Z,99111.36
2022-09-28T22:15:43.117Z,99112.59
2022-09-28T22:18:15.763Z,99114.28
2022-09-28T22:20:47.534Z,99116.77
2022-09-28T22:23:20.997Z,99116.48
2022-09-28T22:25:58.158Z,99116.55
2022-09-28T22:28:30.243Z,99118.13
2022-09-28T22:31:02.303Z,99116.45
2022-09-28T22:33:35.042Z,99119.17
2022-09-28T22:36:07.966Z,99119.77
2022-09-28T22:38:40.273Z,99121.10
2022-09-28T22:41:12.164Z,99127.02
2022-09-28T22:43:44.328Z,99129.64
2022-09-28T22:46:18.538Z,99132.41
2022-09-28T22:48:52.745Z,99138.51
2022-09-28T22:51:26.115Z,99143.08
2022-09-28T22:53:59.708Z,99143.39
2022-09-28T22:56:31.679Z,99144.66
2022-09-28T22:59:03.536Z,99143.18
2022-09-28T23:01:36.888Z,99143.97
2022-09-28T23:04:11.789Z,99148.52
2022-09-28T23:06:43.485Z,99154.11
2022-09-28T23:09:15.434Z,99157.55
2022-09-28T23:11:47.354Z,99157.98
2022-09-28T23:14:20.128Z,99155.85
2022-09-28T23:16:51.852Z,99158.39
2022-09-28T23:19:23.609Z,99160.30
2022-09-28T23:21:55.582Z,99161.87
2022-09-28T23:24:28.981Z,99164.08
2022-09-28T23:27:00.779Z,99163.97
2022-09-28T23:29:32.659Z,99161.66
2022-09-28T23:32:04.659Z,99163.67
2022-09-28T23:34:37.995Z,99159.89
2022-09-28T23:37:09.989Z,99158.59
2022-09-28T23:39:42.440Z,99161.26
2022-09-28T23:42:21.158Z,99165.63
2022-09-28T23:44:53.855Z,99160.25
2022-09-28T23:47:25.638Z,99162.27
2022-09-28T23:49:58.221Z,99158.23
2022-09-28T23:52:30.424Z,99159.67
2022-09-28T23:55:03.382Z,99160.58
2022-09-28T23:57:35.131Z,99160.83
